Date,TemperatureHighF,TemperatureAvgF,TemperatureLowF,DewpointHighF,DewpointAvgF,DewpointLowF,HumidityHigh,HumidityAvg,HumidityLow,PressureMaxIn,PressureMinIn,WindSpeedMaxMPH,WindSpeedAvgMPH,GustSpeedMaxMPH,PrecipitationSumIn
2013-1-1,21,6,0,46,33,0,63,16,40,30.08,29.89,21,1,27,0.00
2013-1-2,23,6,0,46,37,13,79,21,65,30.02,29.88,20,0,25,0.00
2013-1-3,28,6,0,46,39,12,65,13,54,29.97,29.66,27,1,34,0.00
2013-1-4,39,10,0,46,37,13,67,16,40,30.05,29.66,15,1,31,0.00
2013-1-5,36,10,0,46,39,16,73,18,54,30.05,29.72,23,0,38,0.00
2013-1-6,26,7,0,46,37,13,72,19,64,30.13,29.69,11,0,28,0.00
2013-1-7,38,10,0,46,37,12,61,17,49,30.13,29.64,41,2,76,0.00
2013-1-8,40,11,0,46,39,20,77,18,49,30.01,29.66,16,0,26,0.00
2013-1-9,36,3,0,46,44,21,59,4,55,30.31,29.60,23,1,49,0.00
2013-1-10,42,11,0,46,38,15,58,13,35,30.34,29.90,36,0,36,0.00
2013-1-11,42,8,0,46,44,36,89,18,85,29.89,29.44,14,1,29,0.00
2013-1-12,46,12,0,46,40,20,64,16,53,29.83,29.31,40,3,56,0.00
2013-1-13,23,5,0,46,38,10,68,15,58,29.95,29.80,10,0,13,0.00
2013-1-14,25,6,0,46,33,2,65,14,36,30.26,29.95,19,1,33,0.00
2013-1-15,29,8,0,46,32,-2,54,14,30,30.25,29.87,27,2,43,0.00
2013-1-16,31,1,0,46,45,20,73,3,64,29.94,29.40,10,0,24,0.00
2013-1-17,12,3,0,46,31,-5,64,17,45,30.26,29.96,28,1,43,0.00
2013-1-18,16,3,0,46,36,1,80,20,70,30.26,29.66,2,0,20,0.00
2013-1-19,31,8,0,46,38,16,82,24,75,29.72,29.32,17,0,23,0.00
2013-1-20,10,3,0,46,30,-6,74,21,51,30.13,29.62,21,0,41,0.00
2013-1-21,2,0,-4,46,24,-23,59,17,37,30.09,29.86,36,3,54,0.00
2013-1-22,2,0,-9,46,20,-21,56,21,44,30.21,30.04,33,3,37,0.00
2013-1-23,13,4,0,46,21,-12,63,28,49,30.31,29.95,30,2,38,0.00
2013-1-24,12,3,0,46,28,-8,61,17,41,30.62,30.32,9,0,19,0.00
2013-1-25,21,6,0,46,34,6,76,22,54,30.33,29.86,14,0,23,0.00
2013-1-26,22,7,0,46,35,9,75,21,58,30.31,29.98,11,0,20,0.00
2013-1-27,33,8,0,46,38,14,64,15,49,30.24,29.90,6,0,23,0.00
2013-1-28,34,9,0,46,42,28,94,26,81,29.91,29.73,6,0,14,0.04
2013-1-29,36,4,0,46,45,32,92,9,91,29.80,29.37,22,0,24,0.20
2013-1-30,24,6,0,46,39,16,91,23,81,29.50,29.28,22,2,31,0.00
2013-1-31,14,4,0,46,33,3,80,24,64,29.88,29.33,31,1,38,0.00